createdAt,value
2018-12-03T00:08:41.940Z,21.4
2018-12-03T00:18:41.177Z,21.3
2018-12-03T00:28:40.335Z,21.3
2018-12-03T00:38:39.539Z,21.4
2018-12-03T00:48:38.742Z,21.8
2018-12-03T00:58:37.939Z,21.6
2018-12-03T01:08:37.145Z,21.4
2018-12-03T01:18:36.352Z,21.9
2018-12-03T01:28:35.551Z,21.8
2018-12-03T01:38:34.763Z,21.6
2018-12-03T01:48:33.958Z,21.4
2018-12-03T01:58:33.154Z,21.4
2018-12-03T02:08:32.357Z,21.8
2018-12-03T02:18:31.559Z,21.8
2018-12-03T02:28:30.763Z,21.6
2018-12-03T02:38:29.959Z,21.4
2018-12-03T02:48:29.165Z,21.3
2018-12-03T02:58:28.365Z,21.3
2018-12-03T03:08:27.569Z,21.3
2018-12-03T03:18:26.768Z,21.8
2018-12-03T03:28:25.974Z,21.6
2018-12-03T03:38:25.169Z,21.6
2018-12-03T03:48:24.438Z,21.4
2018-12-03T03:58:23.573Z,21.4
2018-12-03T04:08:22.778Z,21.4
2018-12-03T04:18:21.989Z,21.8
2018-12-03T04:28:21.192Z,21.8
2018-12-03T04:38:20.395Z,22
2018-12-03T04:48:19.605Z,21.8
2018-12-03T04:58:18.816Z,21.6
2018-12-03T05:08:18.011Z,21.8
2018-12-03T05:18:17.226Z,22.1
2018-12-03T05:28:16.432Z,22.3
2018-12-03T05:38:15.642Z,22.1
2018-12-03T05:48:14.891Z,22.1
2018-12-03T05:58:14.045Z,21.9
2018-12-03T06:08:13.247Z,22.3
2018-12-03T06:18:12.455Z,22.4
2018-12-03T06:28:11.652Z,22.2
2018-12-03T06:38:15.266Z,22.1
2018-12-03T06:48:10.064Z,22.4
2018-12-03T06:58:09.306Z,22.2
2018-12-03T07:08:08.457Z,22.3
2018-12-03T07:18:07.668Z,22.3
2018-12-03T07:28:06.866Z,22.1
2018-12-03T07:38:06.067Z,22.1
2018-12-03T07:48:05.273Z,22.4
2018-12-03T07:58:04.469Z,22.3
2018-12-03T08:08:03.676Z,22.2
2018-12-03T08:18:02.869Z,22.4
2018-12-03T08:28:02.070Z,22.5
2018-12-03T08:38:03.402Z,22.6
2018-12-03T08:48:00.481Z,22.4
2018-12-03T08:57:59.676Z,22.4
2018-12-03T09:07:58.879Z,22.2
2018-12-03T09:17:58.072Z,22.1
2018-12-03T09:27:57.279Z,21.9
2018-12-03T09:37:56.527Z,21.9
2018-12-03T09:47:55.684Z,21.8
2018-12-03T09:57:54.877Z,21.8
2018-12-03T10:07:54.076Z,22.1
2018-12-03T10:17:53.275Z,22.4
2018-12-03T10:27:52.480Z,22.6
2018-12-03T10:37:51.679Z,22.7
2018-12-03T10:47:50.878Z,22.4
2018-12-03T10:57:50.087Z,22.2
2018-12-03T11:07:49.287Z,22.3
2018-12-03T11:17:48.490Z,22.1
2018-12-03T11:27:47.694Z,22.1
2018-12-03T11:37:46.892Z,22
2018-12-03T11:47:46.098Z,21.9
2018-12-03T11:57:45.306Z,21.9
2018-12-03T12:07:44.512Z,22.3
2018-12-03T12:17:43.711Z,22.2
2018-12-03T12:27:42.910Z,22.1
2018-12-03T12:37:42.113Z,22.3
2018-12-03T12:47:41.313Z,22.4
2018-12-03T12:57:40.515Z,22.5
2018-12-03T13:07:39.722Z,22.4
2018-12-03T13:17:38.931Z,22.3
2018-12-03T13:27:38.132Z,22.3
2018-12-03T13:37:37.332Z,22.4
2018-12-03T13:47:36.542Z,22.5
2018-12-03T13:57:35.743Z,22.6
2018-12-03T14:07:34.942Z,22.3
2018-12-03T14:17:34.152Z,22.4
2018-12-03T14:27:33.344Z,22.6
2018-12-03T14:37:32.545Z,22.4
2018-12-03T14:47:31.749Z,22.3
2018-12-03T14:57:30.955Z,22.5
2018-12-03T15:07:30.156Z,22.3
2018-12-03T15:17:29.363Z,22.5
2018-12-03T15:27:28.563Z,22.6
2018-12-03T15:37:27.770Z,22.7
2018-12-03T15:47:28.087Z,22.8
2018-12-03T15:57:26.172Z,22.7
2018-12-03T16:07:25.374Z,22.4
2018-12-03T16:17:24.573Z,22.5
2018-12-03T16:27:23.773Z,22.4
2018-12-03T16:37:22.978Z,22.6
2018-12-03T16:47:22.171Z,22.6
2018-12-03T16:57:21.384Z,22.5
2018-12-03T17:07:20.578Z,22.3
2018-12-03T17:17:19.785Z,22.2
2018-12-03T17:27:18.989Z,22.1
2018-12-03T17:37:18.191Z,22.3
2018-12-03T17:47:17.398Z,22.4
2018-12-03T17:57:16.610Z,22.3
2018-12-03T18:07:15.816Z,22.3
2018-12-03T18:17:15.028Z,22.4
2018-12-03T18:27:14.238Z,22.3
2018-12-03T18:37:13.437Z,22.5
2018-12-03T18:47:12.657Z,22.6
2018-12-03T18:57:11.863Z,22.6
2018-12-03T19:07:11.069Z,22.4
2018-12-03T19:17:10.274Z,22.3
2018-12-03T19:27:09.480Z,22.4
2018-12-03T19:37:08.687Z,22.4
2018-12-03T19:47:07.896Z,22.4
2018-12-03T19:57:07.101Z,22.5
2018-12-03T20:07:06.316Z,22.6
2018-12-03T20:17:05.552Z,22.5
2018-12-03T20:27:04.732Z,22.5
2018-12-03T20:37:03.944Z,22.4
2018-12-03T20:47:03.156Z,22.6
2018-12-03T20:57:02.368Z,22.5
2018-12-03T21:07:01.571Z,22.4
2018-12-03T21:17:00.780Z,22.3
2018-12-03T21:26:59.983Z,22.2
2018-12-03T21:36:59.191Z,22.1
2018-12-03T21:46:58.397Z,22.1
2018-12-03T21:56:57.599Z,22
2018-12-03T22:06:56.805Z,21.9
2018-12-03T22:16:56.007Z,22.1
2018-12-03T22:26:55.208Z,22.1
2018-12-03T22:36:54.420Z,22.1
2018-12-03T22:46:53.618Z,21.9
2018-12-03T22:56:52.826Z,21.9
2018-12-03T23:06:52.032Z,21.9
2018-12-03T23:16:51.230Z,21.8
2018-12-03T23:26:50.432Z,21.8
2018-12-03T23:36:49.648Z,21.9
2018-12-03T23:46:48.846Z,22.1
2018-12-03T23:56:48.049Z,22
